Tune, Denmark
Current Conditions -  °F | °C
As of 6:50 AM on Friday 31 Oct 2014 (Local Time) from EKRK Reporting Station
Overcast Overcast  
Wind Chill: 45°   Ceiling: 4000
Heat Index: 48°   Visibility: 4mi
Dew Point: 46°   Wind: 8mph
Humidity: 93%   Direction: 140°SE
Pressure: 30.21"   Gusts: NA
Location:  55.6°N, 12.18°E
Report Text: EKRK 310550Z AUTO 14007KT 7000NDV BKN040/// OVC100///09/08 Q1023
Loading
Personal Weather Stations






























Interactive Weather Map
Tropical Storm Tracking
New forecast layout! Learn more

10-Day Weather Forecast

Advertisements
Track Severe Weather on mobile